sensor_id;sensor_type;location;lat;lon;timestamp;P1;durP1;ratioP1;P2;durP2;ratioP2
65545;SDS011;52177;55.968;37.498;2023-08-21T00:00:17;4.30;;;3.53;;
65545;SDS011;52177;55.968;37.498;2023-08-21T00:00:47;4.40;;;3.50;;
65545;SDS011;52177;55.968;37.498;2023-08-21T00:01:18;4.80;;;3.30;;
65545;SDS011;52177;55.968;37.498;2023-08-21T00:01:48;4.68;;;3.40;;
65545;SDS011;52177;55.968;37.498;2023-08-21T00:02:19;3.85;;;3.40;;
65545;SDS011;52177;55.968;37.498;2023-08-21T00:02:49;3.13;;;2.92;;
65545;SDS011;52177;55.968;37.498;2023-08-21T00:03:19;9.13;;;3.58;;
65545;SDS011;52177;55.968;37.498;2023-08-21T00:03:50;5.43;;;3.30;;
65545;SDS011;52177;55.968;37.498;2023-08-21T00:04:20;4.03;;;3.40;;
65545;SDS011;52177;55.968;37.498;2023-08-21T00:04:51;3.75;;;3.40;;
65545;SDS011;52177;55.968;37.498;2023-08-21T00:05:21;6.53;;;3.33;;
65545;SDS011;52177;55.968;37.498;2023-08-21T00:05:51;3.70;;;3.25;;
65545;SDS011;52177;55.968;37.498;2023-08-21T00:06:22;3.90;;;3.60;;
65545;SDS011;52177;55.968;37.498;2023-08-21T00:06:52;3.97;;;3.58;;
65545;SDS011;52177;55.968;37.498;2023-08-21T00:07:23;6.63;;;3.20;;
65545;SDS011;52177;55.968;37.498;2023-08-21T00:07:53;5.85;;;3.50;;
65545;SDS011;52177;55.968;37.498;2023-08-21T00:08:23;3.38;;;2.95;;
65545;SDS011;52177;55.968;37.498;2023-08-21T00:08:54;4.00;;;3.30;;
65545;SDS011;52177;55.968;37.498;2023-08-21T00:09:24;3.30;;;3.10;;
65545;SDS011;52177;55.968;37.498;2023-08-21T00:09:55;3.95;;;2.90;;
65545;SDS011;52177;55.968;37.498;2023-08-21T00:10:25;4.13;;;3.60;;
65545;SDS011;52177;55.968;37.498;2023-08-21T00:10:55;3.78;;;3.47;;
65545;SDS011;52177;55.968;37.498;2023-08-21T00:11:26;3.72;;;3.30;;
65545;SDS011;52177;55.968;37.498;2023-08-21T00:11:56;3.80;;;3.40;;
65545;SDS011;52177;55.968;37.498;2023-08-21T00:12:26;3.53;;;3.22;;
65545;SDS011;52177;55.968;37.498;2023-08-21T00:12:57;3.65;;;3.35;;
65545;SDS011;52177;55.968;37.498;2023-08-21T00:13:27;4.32;;;3.38;;
65545;SDS011;52177;55.968;37.498;2023-08-21T00:13:58;3.53;;;3.22;;
65545;SDS011;52177;55.968;37.498;2023-08-21T00:14:28;4.45;;;3.33;;
65545;SDS011;52177;55.968;37.498;2023-08-21T00:14:58;3.50;;;3.30;;
65545;SDS011;52177;55.968;37.498;2023-08-21T00:15:29;6.13;;;3.40;;
65545;SDS011;52177;55.968;37.498;2023-08-21T00:15:59;4.18;;;3.05;;
65545;SDS011;52177;55.968;37.498;2023-08-21T00:16:29;3.53;;;3.17;;
65545;SDS011;52177;55.968;37.498;2023-08-21T00:17:01;4.07;;;3.20;;
65545;SDS011;52177;55.968;37.498;2023-08-21T00:17:33;3.47;;;3.17;;
65545;SDS011;52177;55.968;37.498;2023-08-21T00:18:03;6.93;;;3.72;;
65545;SDS011;52177;55.968;37.498;2023-08-21T00:18:34;3.90;;;3.50;;
65545;SDS011;52177;55.968;37.498;2023-08-21T00:19:04;4.90;;;3.17;;
65545;SDS011;52177;55.968;37.498;2023-08-21T00:19:34;5.85;;;3.40;;
65545;SDS011;52177;55.968;37.498;2023-08-21T00:20:05;5.10;;;3.20;;
65545;SDS011;52177;55.968;37.498;2023-08-21T00:20:35;3.40;;;3.10;;
65545;SDS011;52177;55.968;37.498;2023-08-21T00:21:06;3.83;;;3.33;;
65545;SDS011;52177;55.968;37.498;2023-08-21T00:21:36;5.10;;;3.42;;
65545;SDS011;52177;55.968;37.498;2023-08-21T00:22:07;3.72;;;3.00;;
65545;SDS011;52177;55.968;37.498;2023-08-21T00:22:37;5.35;;;3.42;;
65545;SDS011;52177;55.968;37.498;2023-08-21T00:23:08;4.53;;;3.33;;
65545;SDS011;52177;55.968;37.498;2023-08-21T00:23:38;4.35;;;2.97;;
65545;SDS011;52177;55.968;37.498;2023-08-21T00:24:09;3.85;;;3.15;;
65545;SDS011;52177;55.968;37.498;2023-08-21T00:24:39;4.68;;;3.30;;
65545;SDS011;52177;55.968;37.498;2023-08-21T00:25:10;4.97;;;3.40;;
65545;SDS011;52177;55.968;37.498;2023-08-21T00:25:40;5.25;;;3.33;;
65545;SDS011;52177;55.968;37.498;2023-08-21T00:26:15;3.45;;;3.15;;
65545;SDS011;52177;55.968;37.498;2023-08-21T00:26:46;3.42;;;3.13;;
65545;SDS011;52177;55.968;37.498;2023-08-21T00:27:16;3.72;;;3.17;;
65545;SDS011;52177;55.968;37.498;2023-08-21T00:27:47;3.78;;;3.08;;
65545;SDS011;52177;55.968;37.498;2023-08-21T00:28:17;5.75;;;3.30;;
65545;SDS011;52177;55.968;37.498;2023-08-21T00:28:47;3.40;;;3.10;;
65545;SDS011;52177;55.968;37.498;2023-08-21T00:29:18;3.10;;;2.85;;
65545;SDS011;52177;55.968;37.498;2023-08-21T00:29:48;4.15;;;3.33;;
65545;SDS011;52177;55.968;37.498;2023-08-21T00:30:18;3.03;;;2.72;;
65545;SDS011;52177;55.968;37.498;2023-08-21T00:30:49;5.03;;;3.00;;
65545;SDS011;52177;55.968;37.498;2023-08-21T00:31:19;3.35;;;3.10;;
65545;SDS011;52177;55.968;37.498;2023-08-21T00:31:50;4.50;;;2.85;;
65545;SDS011;52177;55.968;37.498;2023-08-21T00:32:20;4.82;;;2.80;;
65545;SDS011;52177;55.968;37.498;2023-08-21T00:32:51;3.35;;;3.05;;
65545;SDS011;52177;55.968;37.498;2023-08-21T00:33:21;3.35;;;2.90;;
65545;SDS011;52177;55.968;37.498;2023-08-21T00:33:51;5.60;;;3.38;;
65545;SDS011;52177;55.968;37.498;2023-08-21T00:34:22;3.28;;;3.00;;
65545;SDS011;52177;55.968;37.498;2023-08-21T00:34:52;6.18;;;3.40;;
65545;SDS011;52177;55.968;37.498;2023-08-21T00:35:22;5.13;;;3.63;;
65545;SDS011;52177;55.968;37.498;2023-08-21T00:35:53;7.05;;;3.38;;
65545;SDS011;52177;55.968;37.498;2023-08-21T00:36:23;5.05;;;2.97;;
65545;SDS011;52177;55.968;37.498;2023-08-21T00:36:53;7.30;;;3.40;;
65545;SDS011;52177;55.968;37.498;2023-08-21T00:37:24;3.40;;;3.10;;
65545;SDS011;52177;55.968;37.498;2023-08-21T00:37:54;3.38;;;3.03;;
65545;SDS011;52177;55.968;37.498;2023-08-21T00:38:25;9.73;;;3.25;;
65545;SDS011;52177;55.968;37.498;2023-08-21T00:38:56;5.32;;;3.15;;
65545;SDS011;52177;55.968;37.498;2023-08-21T00:39:26;5.38;;;2.90;;
65545;SDS011;52177;55.968;37.498;2023-08-21T00:39:57;3.58;;;3.05;;
65545;SDS011;52177;55.968;37.498;2023-08-21T00:40:27;3.90;;;2.90;;
65545;SDS011;52177;55.968;37.498;2023-08-21T00:40:57;5.07;;;3.00;;
65545;SDS011;52177;55.968;37.498;2023-08-21T00:41:28;3.10;;;2.80;;
65545;SDS011;52177;55.968;37.498;2023-08-21T00:41:58;5.00;;;2.95;;
65545;SDS011;52177;55.968;37.498;2023-08-21T00:42:29;4.55;;;3.22;;
65545;SDS011;52177;55.968;37.498;2023-08-21T00:42:59;3.42;;;3.00;;
65545;SDS011;52177;55.968;37.498;2023-08-21T00:43:29;4.35;;;3.10;;
65545;SDS011;52177;55.968;37.498;2023-08-21T00:44:00;6.57;;;2.95;;
65545;SDS011;52177;55.968;37.498;2023-08-21T00:44:30;3.95;;;3.08;;
65545;SDS011;52177;55.968;37.498;2023-08-21T00:45:00;4.78;;;2.83;;
65545;SDS011;52177;55.968;37.498;2023-08-21T00:45:31;5.20;;;2.92;;
65545;SDS011;52177;55.968;37.498;2023-08-21T00:46:01;4.88;;;2.90;;
65545;SDS011;52177;55.968;37.498;2023-08-21T00:46:32;4.68;;;2.85;;
65545;SDS011;52177;55.968;37.498;2023-08-21T00:47:04;7.18;;;2.95;;
65545;SDS011;52177;55.968;37.498;2023-08-21T00:47:35;4.32;;;3.20;;
65545;SDS011;52177;55.968;37.498;2023-08-21T00:48:05;7.70;;;3.33;;
65545;SDS011;52177;55.968;37.498;2023-08-21T00:48:37;2.70;;;2.50;;
65545;SDS011;52177;55.968;37.498;2023-08-21T00:49:08;3.20;;;3.00;;
65545;SDS011;52177;55.968;37.498;2023-08-21T00:49:38;6.97;;;3.05;;
65545;SDS011;52177;55.968;37.498;2023-08-21T00:50:09;3.22;;;2.67;;
65545;SDS011;52177;55.968;37.498;2023-08-21T00:50:41;3.60;;;2.80;;
65545;SDS011;52177;55.968;37.498;2023-08-21T00:51:14;2.97;;;2.78;;
65545;SDS011;52177;55.968;37.498;2023-08-21T00:51:46;3.63;;;2.75;;
65545;SDS011;52177;55.968;37.498;2023-08-21T00:52:18;4.93;;;2.65;;
65545;SDS011;52177;55.968;37.498;2023-08-21T00:52:49;3.50;;;2.72;;
65545;SDS011;52177;55.968;37.498;2023-08-21T00:53:20;3.15;;;2.85;;
65545;SDS011;52177;55.968;37.498;2023-08-21T00:53:51;3.42;;;2.67;;
65545;SDS011;52177;55.968;37.498;2023-08-21T00:54:21;3.55;;;2.70;;
65545;SDS011;52177;55.968;37.498;2023-08-21T00:54:52;4.63;;;2.80;;
65545;SDS011;52177;55.968;37.498;2023-08-21T00:55:23;4.20;;;2.83;;
65545;SDS011;52177;55.968;37.498;2023-08-21T00:55:54;5.43;;;2.95;;
65545;SDS011;52177;55.968;37.498;2023-08-21T00:56:24;3.47;;;2.55;;
65545;SDS011;52177;55.968;37.498;2023-08-21T00:56:55;3.53;;;2.63;;
65545;SDS011;52177;55.968;37.498;2023-08-21T00:57:25;2.70;;;2.35;;
65545;SDS011;52177;55.968;37.498;2023-08-21T00:57:56;3.20;;;2.67;;
65545;SDS011;52177;55.968;37.498;2023-08-21T00:58:27;2.72;;;2.42;;
65545;SDS011;52177;55.968;37.498;2023-08-21T00:58:58;3.97;;;2.50;;
65545;SDS011;52177;55.968;37.498;2023-08-21T00:59:28;3.10;;;2.83;;
65545;SDS011;52177;55.968;37.498;2023-08-21T01:00:00;4.45;;;2.40;;
65545;SDS011;52177;55.968;37.498;2023-08-21T01:00:31;6.68;;;2.28;;
65545;SDS011;52177;55.968;37.498;2023-08-21T01:01:03;2.72;;;2.53;;
65545;SDS011;52177;55.968;37.498;2023-08-21T01:01:34;3.03;;;2.72;;
65545;SDS011;52177;55.968;37.498;2023-08-21T01:02:05;7.28;;;2.50;;
65545;SDS011;52177;55.968;37.498;2023-08-21T01:02:36;3.75;;;2.65;;
65545;SDS011;52177;55.968;37.498;2023-08-21T01:03:06;3.00;;;2.30;;
65545;SDS011;52177;55.968;37.498;2023-08-21T01:03:37;5.47;;;2.75;;
65545;SDS011;52177;55.968;37.498;2023-08-21T01:04:07;3.75;;;2.60;;
65545;SDS011;52177;55.968;37.498;2023-08-21T01:04:38;4.47;;;2.45;;
65545;SDS011;52177;55.968;37.498;2023-08-21T01:05:09;2.90;;;2.63;;
65545;SDS011;52177;55.968;37.498;2023-08-21T01:05:39;4.80;;;2.78;;
65545;SDS011;52177;55.968;37.498;2023-08-21T01:06:09;3.85;;;2.55;;
65545;SDS011;52177;55.968;37.498;2023-08-21T01:06:40;3.90;;;2.67;;
65545;SDS011;52177;55.968;37.498;2023-08-21T01:07:10;3.90;;;2.85;;
65545;SDS011;52177;55.968;37.498;2023-08-21T01:07:49;3.75;;;2.90;;
65545;SDS011;52177;55.968;37.498;2023-08-21T01:08:47;3.30;;;2.50;;
65545;SDS011;52177;55.968;37.498;2023-08-21T01:11:25;4.55;;;2.47;;
65545;SDS011;52177;55.968;37.498;2023-08-21T01:12:09;2.67;;;2.30;;
65545;SDS011;52177;55.968;37.498;2023-08-21T01:13:03;4.38;;;2.35;;
65545;SDS011;52177;55.968;37.498;2023-08-21T01:13:44;2.47;;;2.28;;
65545;SDS011;52177;55.968;37.498;2023-08-21T01:15:28;3.17;;;2.25;;
65545;SDS011;52177;55.968;37.498;2023-08-21T01:16:00;3.17;;;2.55;;
65545;SDS011;52177;55.968;37.498;2023-08-21T01:16:31;7.47;;;2.50;;
65545;SDS011;52177;55.968;37.498;2023-08-21T01:17:03;5.88;;;2.78;;
65545;SDS011;52177;55.968;37.498;2023-08-21T01:17:36;4.80;;;2.80;;
65545;SDS011;52177;55.968;37.498;2023-08-21T01:18:07;4.50;;;2.88;;
65545;SDS011;52177;55.968;37.498;2023-08-21T01:18:39;3.10;;;2.75;;
65545;SDS011;52177;55.968;37.498;2023-08-21T01:19:14;4.97;;;2.60;;
65545;SDS011;52177;55.968;37.498;2023-08-21T01:19:54;3.80;;;2.60;;
65545;SDS011;52177;55.968;37.498;2023-08-21T01:20:26;4.05;;;2.53;;
65545;SDS011;52177;55.968;37.498;2023-08-21T01:20:57;3.55;;;2.40;;
65545;SDS011;52177;55.968;37.498;2023-08-21T01:21:28;5.05;;;2.50;;
65545;SDS011;52177;55.968;37.498;2023-08-21T01:21:59;3.15;;;2.65;;
65545;SDS011;52177;55.968;37.498;2023-08-21T01:22:38;3.20;;;2.72;;
65545;SDS011;52177;55.968;37.498;2023-08-21T01:23:09;7.20;;;2.83;;
65545;SDS011;52177;55.968;37.498;2023-08-21T01:23:40;2.97;;;2.67;;
65545;SDS011;52177;55.968;37.498;2023-08-21T01:24:12;3.28;;;2.70;;
65545;SDS011;52177;55.968;37.498;2023-08-21T01:24:42;6.93;;;2.67;;
65545;SDS011;52177;55.968;37.498;2023-08-21T01:25:12;3.03;;;2.72;;
65545;SDS011;52177;55.968;37.498;2023-08-21T01:25:43;3.45;;;2.50;;
65545;SDS011;52177;55.968;37.498;2023-08-21T01:26:14;2.85;;;2.58;;
65545;SDS011;52177;55.968;37.498;2023-08-21T01:26:44;5.43;;;2.55;;
65545;SDS011;52177;55.968;37.498;2023-08-21T01:27:14;5.75;;;3.10;;
65545;SDS011;52177;55.968;37.498;2023-08-21T01:27:47;4.30;;;2.85;;
65545;SDS011;52177;55.968;37.498;2023-08-21T01:28:20;3.35;;;2.58;;
65545;SDS011;52177;55.968;37.498;2023-08-21T01:28:50;5.93;;;2.40;;
65545;SDS011;52177;55.968;37.498;2023-08-21T01:29:21;3.65;;;2.80;;
65545;SDS011;52177;55.968;37.498;2023-08-21T01:29:51;3.45;;;2.40;;
65545;SDS011;52177;55.968;37.498;2023-08-21T01:30:22;2.92;;;2.50;;
65545;SDS011;52177;55.968;37.498;2023-08-21T01:30:56;4.15;;;2.65;;
65545;SDS011;52177;55.968;37.498;2023-08-21T01:31:32;5.15;;;2.67;;
65545;SDS011;52177;55.968;37.498;2023-08-21T01:33:05;2.45;;;2.17;;
65545;SDS011;52177;55.968;37.498;2023-08-21T01:33:45;4.55;;;2.58;;
65545;SDS011;52177;55.968;37.498;2023-08-21T01:34:18;3.40;;;2.40;;
65545;SDS011;52177;55.968;37.498;2023-08-21T01:34:49;4.15;;;2.90;;
65545;SDS011;52177;55.968;37.498;2023-08-21T01:35:21;3.10;;;2.50;;
65545;SDS011;52177;55.968;37.498;2023-08-21T01:35:53;3.58;;;2.60;;
65545;SDS011;52177;55.968;37.498;2023-08-21T01:36:24;2.80;;;2.60;;
65545;SDS011;52177;55.968;37.498;2023-08-21T01:36:56;2.92;;;2.22;;
65545;SDS011;52177;55.968;37.498;2023-08-21T01:37:26;2.55;;;2.33;;
65545;SDS011;52177;55.968;37.498;2023-08-21T01:37:58;2.60;;;2.33;;
65545;SDS011;52177;55.968;37.498;2023-08-21T01:38:32;2.92;;;2.50;;
65545;SDS011;52177;55.968;37.498;2023-08-21T01:39:03;2.55;;;2.20;;
65545;SDS011;52177;55.968;37.498;2023-08-21T01:39:34;4.15;;;2.70;;
65545;SDS011;52177;55.968;37.498;2023-08-21T01:40:05;3.97;;;2.33;;
65545;SDS011;52177;55.968;37.498;2023-08-21T01:40:35;3.17;;;2.35;;
65545;SDS011;52177;55.968;37.498;2023-08-21T01:41:06;3.00;;;2.60;;
65545;SDS011;52177;55.968;37.498;2023-08-21T01:41:36;2.95;;;2.55;;
65545;SDS011;52177;55.968;37.498;2023-08-21T01:42:07;4.65;;;2.28;;
65545;SDS011;52177;55.968;37.498;2023-08-21T01:42:37;4.35;;;2.22;;
65545;SDS011;52177;55.968;37.498;2023-08-21T01:43:07;5.50;;;2.47;;
65545;SDS011;52177;55.968;37.498;2023-08-21T01:43:38;2.40;;;2.20;;
65545;SDS011;52177;55.968;37.498;2023-08-21T01:44:08;6.82;;;2.70;;
65545;SDS011;52177;55.968;37.498;2023-08-21T01:44:38;4.30;;;2.28;;
65545;SDS011;52177;55.968;37.498;2023-08-21T01:45:09;6.88;;;2.50;;
65545;SDS011;52177;55.968;37.498;2023-08-21T01:45:39;2.65;;;2.25;;
65545;SDS011;52177;55.968;37.498;2023-08-21T01:46:10;2.63;;;2.30;;
65545;SDS011;52177;55.968;37.498;2023-08-21T01:46:41;2.80;;;2.60;;
65545;SDS011;52177;55.968;37.498;2023-08-21T01:47:11;5.30;;;2.67;;
65545;SDS011;52177;55.968;37.498;2023-08-21T01:47:42;2.63;;;2.33;;
65545;SDS011;52177;55.968;37.498;2023-08-21T01:48:12;4.03;;;2.38;;
65545;SDS011;52177;55.968;37.498;2023-08-21T01:48:43;5.35;;;2.67;;
65545;SDS011;52177;55.968;37.498;2023-08-21T01:49:13;3.05;;;2.20;;
65545;SDS011;52177;55.968;37.498;2023-08-21T01:49:43;4.55;;;2.45;;
65545;SDS011;52177;55.968;37.498;2023-08-21T01:50:14;2.80;;;2.45;;
65545;SDS011;52177;55.968;37.498;2023-08-21T01:50:44;2.92;;;2.13;;
65545;SDS011;52177;55.968;37.498;2023-08-21T01:51:15;4.55;;;2.40;;
65545;SDS011;52177;55.968;37.498;2023-08-21T01:51:45;2.75;;;2.55;;
65545;SDS011;52177;55.968;37.498;2023-08-21T01:52:16;4.22;;;2.40;;
65545;SDS011;52177;55.968;37.498;2023-08-21T01:52:46;5.00;;;2.75;;
65545;SDS011;52177;55.968;37.498;2023-08-21T01:53:17;6.88;;;2.67;;
65545;SDS011;52177;55.968;37.498;2023-08-21T01:53:47;4.43;;;2.45;;
65545;SDS011;52177;55.968;37.498;2023-08-21T01:54:18;3.10;;;2.50;;
65545;SDS011;52177;55.968;37.498;2023-08-21T01:54:49;3.30;;;2.45;;
65545;SDS011;52177;55.968;37.498;2023-08-21T01:55:20;2.95;;;2.38;;
65545;SDS011;52177;55.968;37.498;2023-08-21T01:55:50;4.90;;;2.70;;
65545;SDS011;52177;55.968;37.498;2023-08-21T01:56:21;2.67;;;2.42;;
65545;SDS011;52177;55.968;37.498;2023-08-21T01:56:52;7.30;;;2.55;;
65545;SDS011;52177;55.968;37.498;2023-08-21T01:57:22;5.13;;;2.75;;
65545;SDS011;52177;55.968;37.498;2023-08-21T01:57:53;2.97;;;2.70;;
65545;SDS011;52177;55.968;37.498;2023-08-21T01:58:23;5.72;;;2.92;;
65545;SDS011;52177;55.968;37.498;2023-08-21T01:58:53;3.88;;;2.33;;
65545;SDS011;52177;55.968;37.498;2023-08-21T01:59:24;3.63;;;2.40;;
65545;SDS011;52177;55.968;37.498;2023-08-21T01:59:54;5.03;;;2.45;;
65545;SDS011;52177;55.968;37.498;2023-08-21T02:00:25;6.32;;;2.45;;
65545;SDS011;52177;55.968;37.498;2023-08-21T02:00:55;5.50;;;2.80;;
65545;SDS011;52177;55.968;37.498;2023-08-21T02:01:26;3.20;;;2.45;;
65545;SDS011;52177;55.968;37.498;2023-08-21T02:01:56;2.65;;;2.35;;
65545;SDS011;52177;55.968;37.498;2023-08-21T02:02:26;2.83;;;2.13;;
65545;SDS011;52177;55.968;37.498;2023-08-21T02:02:57;3.88;;;2.70;;
65545;SDS011;52177;55.968;37.498;2023-08-21T02:03:27;2.33;;;2.13;;
65545;SDS011;52177;55.968;37.498;2023-08-21T02:04:00;5.20;;;2.58;;
65545;SDS011;52177;55.968;37.498;2023-08-21T02:04:31;4.28;;;2.40;;
65545;SDS011;52177;55.968;37.498;2023-08-21T02:05:01;4.20;;;2.40;;
65545;SDS011;52177;55.968;37.498;2023-08-21T02:05:39;4.50;;;2.45;;
65545;SDS011;52177;55.968;37.498;2023-08-21T02:06:10;4.65;;;2.42;;
65545;SDS011;52177;55.968;37.498;2023-08-21T02:06:41;2.80;;;2.42;;
65545;SDS011;52177;55.968;37.498;2023-08-21T02:07:14;3.58;;;2.33;;
65545;SDS011;52177;55.968;37.498;2023-08-21T02:07:44;4.68;;;2.50;;
65545;SDS011;52177;55.968;37.498;2023-08-21T02:08:14;6.90;;;2.60;;
65545;SDS011;52177;55.968;37.498;2023-08-21T02:08:45;3.63;;;2.60;;
65545;SDS011;52177;55.968;37.498;2023-08-21T02:09:15;8.80;;;2.67;;
65545;SDS011;52177;55.968;37.498;2023-08-21T02:09:45;4.60;;;2.42;;
65545;SDS011;52177;55.968;37.498;2023-08-21T02:10:16;5.30;;;2.92;;
65545;SDS011;52177;55.968;37.498;2023-08-21T02:10:55;3.45;;;2.28;;
65545;SDS011;52177;55.968;37.498;2023-08-21T02:11:26;2.67;;;2.42;;
65545;SDS011;52177;55.968;37.498;2023-08-21T02:11:56;5.47;;;2.60;;
65545;SDS011;52177;55.968;37.498;2023-08-21T02:12:26;3.25;;;2.45;;
65545;SDS011;52177;55.968;37.498;2023-08-21T02:12:57;2.53;;;2.33;;
65545;SDS011;52177;55.968;37.498;2023-08-21T02:13:27;3.53;;;2.67;;
65545;SDS011;52177;55.968;37.498;2023-08-21T02:13:58;3.70;;;2.38;;
65545;SDS011;52177;55.968;37.498;2023-08-21T02:14:28;4.13;;;2.42;;
65545;SDS011;52177;55.968;37.498;2023-08-21T02:14:58;2.90;;;2.25;;
65545;SDS011;52177;55.968;37.498;2023-08-21T02:15:29;4.40;;;2.20;;
65545;SDS011;52177;55.968;37.498;2023-08-21T02:15:59;2.30;;;2.10;;
65545;SDS011;52177;55.968;37.498;2023-08-21T02:16:30;5.75;;;2.65;;
65545;SDS011;52177;55.968;37.498;2023-08-21T02:17:00;5.00;;;2.30;;
65545;SDS011;52177;55.968;37.498;2023-08-21T02:17:31;5.20;;;2.10;;
65545;SDS011;52177;55.968;37.498;2023-08-21T02:18:02;3.65;;;2.20;;
65545;SDS011;52177;55.968;37.498;2023-08-21T02:18:33;5.97;;;2.60;;
65545;SDS011;52177;55.968;37.498;2023-08-21T02:19:03;3.78;;;2.25;;
65545;SDS011;52177;55.968;37.498;2023-08-21T02:19:34;4.15;;;2.22;;
65545;SDS011;52177;55.968;37.498;2023-08-21T02:20:04;3.95;;;2.00;;
65545;SDS011;52177;55.968;37.498;2023-08-21T02:20:35;5.22;;;2.47;;
65545;SDS011;52177;55.968;37.498;2023-08-21T02:21:05;2.63;;;2.42;;
65545;SDS011;52177;55.968;37.498;2023-08-21T02:21:36;3.90;;;2.72;;
65545;SDS011;52177;55.968;37.498;2023-08-21T02:22:06;4.65;;;2.47;;
65545;SDS011;52177;55.968;37.498;2023-08-21T02:22:36;2.78;;;2.22;;
65545;SDS011;52177;55.968;37.498;2023-08-21T02:23:07;5.10;;;2.20;;
65545;SDS011;52177;55.968;37.498;2023-08-21T02:23:37;2.95;;;2.25;;
65545;SDS011;52177;55.968;37.498;2023-08-21T02:24:08;8.50;;;2.40;;
65545;SDS011;52177;55.968;37.498;2023-08-21T02:24:38;6.35;;;2.60;;
65545;SDS011;52177;55.968;37.498;2023-08-21T02:25:09;3.15;;;2.50;;
65545;SDS011;52177;55.968;37.498;2023-08-21T02:25:40;5.63;;;2.50;;
65545;SDS011;52177;55.968;37.498;2023-08-21T02:26:10;2.83;;;2.55;;
65545;SDS011;52177;55.968;37.498;2023-08-21T02:26:41;6.05;;;2.17;;
65545;SDS011;52177;55.968;37.498;2023-08-21T02:27:13;5.53;;;2.80;;
65545;SDS011;52177;55.968;37.498;2023-08-21T02:27:43;9.55;;;2.67;;
65545;SDS011;52177;55.968;37.498;2023-08-21T02:28:13;3.20;;;2.58;;
65545;SDS011;52177;55.968;37.498;2023-08-21T02:28:44;2.40;;;2.20;;
65545;SDS011;52177;55.968;37.498;2023-08-21T02:29:14;6.30;;;2.53;;
65545;SDS011;52177;55.968;37.498;2023-08-21T02:29:44;4.15;;;2.53;;
65545;SDS011;52177;55.968;37.498;2023-08-21T02:30:15;4.90;;;2.17;;
65545;SDS011;52177;55.968;37.498;2023-08-21T02:30:45;4.55;;;2.47;;
65545;SDS011;52177;55.968;37.498;2023-08-21T02:31:16;3.15;;;2.28;;
65545;SDS011;52177;55.968;37.498;2023-08-21T02:31:46;3.63;;;2.20;;
65545;SDS011;52177;55.968;37.498;2023-08-21T02:32:16;5.03;;;2.25;;
65545;SDS011;52177;55.968;37.498;2023-08-21T02:32:47;3.97;;;2.33;;
65545;SDS011;52177;55.968;37.498;2023-08-21T02:33:17;7.55;;;2.72;;
65545;SDS011;52177;55.968;37.498;2023-08-21T02:33:48;2.80;;;2.30;;
65545;SDS011;52177;55.968;37.498;2023-08-21T02:34:19;3.00;;;2.40;;
65545;SDS011;52177;55.968;37.498;2023-08-21T02:34:50;4.28;;;2.40;;
65545;SDS011;52177;55.968;37.498;2023-08-21T02:35:20;4.90;;;2.13;;
65545;SDS011;52177;55.968;37.498;2023-08-21T02:35:51;2.35;;;2.03;;
65545;SDS011;52177;55.968;37.498;2023-08-21T02:36:21;6.28;;;2.45;;
65545;SDS011;52177;55.968;37.498;2023-08-21T02:36:52;2.70;;;2.40;;
65545;SDS011;52177;55.968;37.498;2023-08-21T02:37:22;9.57;;;2.60;;
65545;SDS011;52177;55.968;37.498;2023-08-21T02:37:53;4.03;;;2.20;;
65545;SDS011;52177;55.968;37.498;2023-08-21T02:38:23;8.45;;;2.70;;
65545;SDS011;52177;55.968;37.498;2023-08-21T02:38:55;4.57;;;2.30;;
65545;SDS011;52177;55.968;37.498;2023-08-21T02:39:25;4.10;;;2.47;;
65545;SDS011;52177;55.968;37.498;2023-08-21T02:39:56;4.28;;;2.47;;
65545;SDS011;52177;55.968;37.498;2023-08-21T02:40:26;2.78;;;2.50;;
65545;SDS011;52177;55.968;37.498;2023-08-21T02:40:56;4.90;;;2.50;;
65545;SDS011;52177;55.968;37.498;2023-08-21T02:41:27;5.10;;;2.15;;
65545;SDS011;52177;55.968;37.498;2023-08-21T02:41:57;3.15;;;2.15;;
65545;SDS011;52177;55.968;37.498;2023-08-21T02:42:27;2.30;;;2.10;;
65545;SDS011;52177;55.968;37.498;2023-08-21T02:42:58;2.95;;;2.40;;
65545;SDS011;52177;55.968;37.498;2023-08-21T02:43:28;3.83;;;2.25;;
65545;SDS011;52177;55.968;37.498;2023-08-21T02:43:59;4.10;;;2.28;;
65545;SDS011;52177;55.968;37.498;2023-08-21T02:44:29;3.67;;;3.10;;
65545;SDS011;52177;55.968;37.498;2023-08-21T02:44:59;3.85;;;2.88;;
65545;SDS011;52177;55.968;37.498;2023-08-21T02:45:33;4.38;;;2.47;;
65545;SDS011;52177;55.968;37.498;2023-08-21T02:46:04;6.88;;;2.47;;
65545;SDS011;52177;55.968;37.498;2023-08-21T02:46:34;3.35;;;2.55;;
65545;SDS011;52177;55.968;37.498;2023-08-21T02:47:06;4.82;;;2.67;;
65545;SDS011;52177;55.968;37.498;2023-08-21T02:47:39;4.20;;;2.50;;
65545;SDS011;52177;55.968;37.498;2023-08-21T02:48:11;5.80;;;2.50;;
65545;SDS011;52177;55.968;37.498;2023-08-21T02:48:41;2.90;;;2.40;;
65545;SDS011;52177;55.968;37.498;2023-08-21T02:49:11;6.45;;;2.63;;
65545;SDS011;52177;55.968;37.498;2023-08-21T02:49:42;2.85;;;2.40;;
65545;SDS011;52177;55.968;37.498;2023-08-21T02:50:12;2.55;;;2.30;;
65545;SDS011;52177;55.968;37.498;2023-08-21T02:50:43;3.95;;;2.45;;
65545;SDS011;52177;55.968;37.498;2023-08-21T02:51:13;3.80;;;2.50;;
65545;SDS011;52177;55.968;37.498;2023-08-21T02:51:44;3.78;;;2.75;;
65545;SDS011;52177;55.968;37.498;2023-08-21T02:52:14;2.85;;;2.38;;
65545;SDS011;52177;55.968;37.498;2023-08-21T02:52:44;3.22;;;2.50;;
65545;SDS011;52177;55.968;37.498;2023-08-21T02:53:15;4.70;;;2.60;;
65545;SDS011;52177;55.968;37.498;2023-08-21T02:53:45;5.82;;;2.58;;
65545;SDS011;52177;55.968;37.498;2023-08-21T02:54:16;3.25;;;2.25;;
65545;SDS011;52177;55.968;37.498;2023-08-21T02:54:46;4.45;;;2.30;;
65545;SDS011;52177;55.968;37.498;2023-08-21T02:55:16;4.03;;;2.55;;
65545;SDS011;52177;55.968;37.498;2023-08-21T02:55:47;6.13;;;2.80;;
65545;SDS011;52177;55.968;37.498;2023-08-21T02:56:18;3.03;;;2.72;;
65545;SDS011;52177;55.968;37.498;2023-08-21T02:56:48;5.63;;;2.80;;
65545;SDS011;52177;55.968;37.498;2023-08-21T02:57:19;4.40;;;2.25;;
65545;SDS011;52177;55.968;37.498;2023-08-21T02:57:49;3.72;;;2.40;;
65545;SDS011;52177;55.968;37.498;2023-08-21T02:58:20;3.97;;;2.50;;
65545;SDS011;52177;55.968;37.498;2023-08-21T02:58:50;2.78;;;2.28;;
65545;SDS011;52177;55.968;37.498;2023-08-21T02:59:20;3.42;;;2.33;;
65545;SDS011;52177;55.968;37.498;2023-08-21T02:59:51;2.60;;;2.40;;
65545;SDS011;52177;55.968;37.498;2023-08-21T03:00:21;4.15;;;2.50;;
65545;SDS011;52177;55.968;37.498;2023-08-21T03:00:52;2.63;;;2.25;;
65545;SDS011;52177;55.968;37.498;2023-08-21T03:01:22;3.63;;;2.63;;
65545;SDS011;52177;55.968;37.498;2023-08-21T03:01:52;5.30;;;2.50;;
65545;SDS011;52177;55.968;37.498;2023-08-21T03:02:23;2.75;;;2.50;;
65545;SDS011;52177;55.968;37.498;2023-08-21T03:02:53;3.33;;;2.67;;
65545;SDS011;52177;55.968;37.498;2023-08-21T03:03:24;6.72;;;2.63;;
65545;SDS011;52177;55.968;37.498;2023-08-21T03:03:54;3.08;;;2.78;;
65545;SDS011;52177;55.968;37.498;2023-08-21T03:04:24;3.65;;;2.53;;
65545;SDS011;52177;55.968;37.498;2023-08-21T03:04:55;3.00;;;2.42;;
65545;SDS011;52177;55.968;37.498;2023-08-21T03:05:25;3.58;;;2.60;;
65545;SDS011;52177;55.968;37.498;2023-08-21T03:05:56;4.75;;;2.72;;
65545;SDS011;52177;55.968;37.498;2023-08-21T03:06:26;3.08;;;2.35;;
65545;SDS011;52177;55.968;37.498;2023-08-21T03:06:56;2.55;;;2.35;;
65545;SDS011;52177;55.968;37.498;2023-08-21T03:07:27;4.38;;;2.50;;
65545;SDS011;52177;55.968;37.498;2023-08-21T03:07:57;3.20;;;2.70;;
65545;SDS011;52177;55.968;37.498;2023-08-21T03:08:28;4.38;;;2.58;;